sensor_id;sensor_type;location;lat;lon;timestamp;temperature;humidity
46091;DHT22;31826;53.572;10.170;2023-06-22T00:00:53;20.10;99.90
46091;DHT22;31826;53.572;10.170;2023-06-22T00:03:20;20.10;99.90
46091;DHT22;31826;53.572;10.170;2023-06-22T00:05:47;20.10;99.90
46091;DHT22;31826;53.572;10.170;2023-06-22T00:08:13;20.00;99.90
46091;DHT22;31826;53.572;10.170;2023-06-22T00:10:39;20.00;99.90
46091;DHT22;31826;53.572;10.170;2023-06-22T00:13:06;20.00;99.90
46091;DHT22;31826;53.572;10.170;2023-06-22T00:15:32;19.80;99.90
46091;DHT22;31826;53.572;10.170;2023-06-22T00:17:58;19.90;99.90
46091;DHT22;31826;53.572;10.170;2023-06-22T00:20:25;19.90;99.90
46091;DHT22;31826;53.572;10.170;2023-06-22T00:22:54;19.80;99.90
46091;DHT22;31826;53.572;10.170;2023-06-22T00:25:21;19.80;99.90
46091;DHT22;31826;53.572;10.170;2023-06-22T00:27:47;19.80;99.90
46091;DHT22;31826;53.572;10.170;2023-06-22T00:30:13;19.80;99.90
46091;DHT22;31826;53.572;10.170;2023-06-22T00:32:39;19.70;99.90
46091;DHT22;31826;53.572;10.170;2023-06-22T00:35:05;19.70;99.90
46091;DHT22;31826;53.572;10.170;2023-06-22T00:37:30;19.70;99.90
46091;DHT22;31826;53.572;10.170;2023-06-22T00:39:56;19.70;99.90
46091;DHT22;31826;53.572;10.170;2023-06-22T00:42:22;19.70;99.90
46091;DHT22;31826;53.572;10.170;2023-06-22T00:44:48;19.70;99.90
46091;DHT22;31826;53.572;10.170;2023-06-22T00:47:15;19.60;99.90
46091;DHT22;31826;53.572;10.170;2023-06-22T00:49:42;19.60;99.90
46091;DHT22;31826;53.572;10.170;2023-06-22T00:52:09;19.70;99.90
46091;DHT22;31826;53.572;10.170;2023-06-22T00:54:40;19.70;99.90
46091;DHT22;31826;53.572;10.170;2023-06-22T00:57:13;19.60;99.90
46091;DHT22;31826;53.572;10.170;2023-06-22T00:59:43;19.20;99.90
46091;DHT22;31826;53.572;10.170;2023-06-22T01:02:09;18.90;99.90
46091;DHT22;31826;53.572;10.170;2023-06-22T01:04:36;18.80;99.90
46091;DHT22;31826;53.572;10.170;2023-06-22T01:12:45;19.20;99.90
46091;DHT22;31826;53.572;10.170;2023-06-22T01:15:15;19.30;99.90
46091;DHT22;31826;53.572;10.170;2023-06-22T01:17:45;19.50;99.90
46091;DHT22;31826;53.572;10.170;2023-06-22T01:20:14;19.50;99.90
46091;DHT22;31826;53.572;10.170;2023-06-22T01:23:22;19.50;99.90
46091;DHT22;31826;53.572;10.170;2023-06-22T01:26:25;19.50;99.90
46091;DHT22;31826;53.572;10.170;2023-06-22T01:28:47;19.60;99.90
46091;DHT22;31826;53.572;10.170;2023-06-22T01:31:16;19.60;99.90
46091;DHT22;31826;53.572;10.170;2023-06-22T01:33:44;19.50;99.90
46091;DHT22;31826;53.572;10.170;2023-06-22T01:36:11;19.50;99.90
46091;DHT22;31826;53.572;10.170;2023-06-22T01:38:38;19.40;99.90
46091;DHT22;31826;53.572;10.170;2023-06-22T01:41:04;19.40;99.90
46091;DHT22;31826;53.572;10.170;2023-06-22T01:43:31;19.40;99.90
46091;DHT22;31826;53.572;10.170;2023-06-22T01:46:00;19.40;99.90
46091;DHT22;31826;53.572;10.170;2023-06-22T01:48:26;19.30;99.90
46091;DHT22;31826;53.572;10.170;2023-06-22T01:50:53;19.30;99.90
46091;DHT22;31826;53.572;10.170;2023-06-22T01:53:21;19.30;99.90
46091;DHT22;31826;53.572;10.170;2023-06-22T01:55:47;19.20;99.90
46091;DHT22;31826;53.572;10.170;2023-06-22T01:58:13;19.20;99.90
46091;DHT22;31826;53.572;10.170;2023-06-22T02:00:40;19.20;99.90
46091;DHT22;31826;53.572;10.170;2023-06-22T02:03:13;19.20;99.90
46091;DHT22;31826;53.572;10.170;2023-06-22T02:05:49;19.30;99.90
46091;DHT22;31826;53.572;10.170;2023-06-22T02:08:20;19.30;99.90
46091;DHT22;31826;53.572;10.170;2023-06-22T02:10:46;19.20;99.90
46091;DHT22;31826;53.572;10.170;2023-06-22T02:13:14;19.20;99.90
46091;DHT22;31826;53.572;10.170;2023-06-22T02:15:40;19.20;99.90
46091;DHT22;31826;53.572;10.170;2023-06-22T02:18:06;19.00;99.90
46091;DHT22;31826;53.572;10.170;2023-06-22T02:20:32;19.00;99.90
46091;DHT22;31826;53.572;10.170;2023-06-22T02:22:58;19.00;99.90
46091;DHT22;31826;53.572;10.170;2023-06-22T02:25:24;19.00;99.90
46091;DHT22;31826;53.572;10.170;2023-06-22T02:27:49;19.00;99.90
46091;DHT22;31826;53.572;10.170;2023-06-22T02:30:15;19.00;99.90
46091;DHT22;31826;53.572;10.170;2023-06-22T02:32:42;19.00;99.90
46091;DHT22;31826;53.572;10.170;2023-06-22T02:35:08;18.90;99.90
46091;DHT22;31826;53.572;10.170;2023-06-22T02:37:36;18.90;99.90
46091;DHT22;31826;53.572;10.170;2023-06-22T02:40:07;18.90;99.90
46091;DHT22;31826;53.572;10.170;2023-06-22T02:42:35;18.90;99.90
46091;DHT22;31826;53.572;10.170;2023-06-22T02:45:01;18.90;99.90
46091;DHT22;31826;53.572;10.170;2023-06-22T02:47:26;18.90;99.90
46091;DHT22;31826;53.572;10.170;2023-06-22T02:49:52;18.90;99.90
46091;DHT22;31826;53.572;10.170;2023-06-22T02:52:18;18.90;99.90
46091;DHT22;31826;53.572;10.170;2023-06-22T02:54:43;18.80;99.90
46091;DHT22;31826;53.572;10.170;2023-06-22T02:57:11;18.80;99.90
46091;DHT22;31826;53.572;10.170;2023-06-22T02:59:39;18.70;99.90
46091;DHT22;31826;53.572;10.170;2023-06-22T03:02:07;18.70;99.90
46091;DHT22;31826;53.572;10.170;2023-06-22T03:04:35;18.70;99.90
46091;DHT22;31826;53.572;10.170;2023-06-22T03:07:00;18.60;99.90
46091;DHT22;31826;53.572;10.170;2023-06-22T03:09:27;18.70;99.90
46091;DHT22;31826;53.572;10.170;2023-06-22T03:11:56;18.70;99.90
46091;DHT22;31826;53.572;10.170;2023-06-22T03:14:22;18.70;99.90
46091;DHT22;31826;53.572;10.170;2023-06-22T03:16:48;18.60;99.90
46091;DHT22;31826;53.572;10.170;2023-06-22T03:19:14;18.60;99.90
46091;DHT22;31826;53.572;10.170;2023-06-22T03:21:40;18.60;99.90
46091;DHT22;31826;53.572;10.170;2023-06-22T03:24:06;18.60;99.90
46091;DHT22;31826;53.572;10.170;2023-06-22T03:26:33;18.60;99.90
46091;DHT22;31826;53.572;10.170;2023-06-22T03:28:58;18.60;99.90
46091;DHT22;31826;53.572;10.170;2023-06-22T03:31:24;18.60;99.90
46091;DHT22;31826;53.572;10.170;2023-06-22T03:33:50;18.60;99.90
46091;DHT22;31826;53.572;10.170;2023-06-22T03:36:17;18.60;99.90
46091;DHT22;31826;53.572;10.170;2023-06-22T03:38:46;18.60;99.90
46091;DHT22;31826;53.572;10.170;2023-06-22T03:41:12;18.60;99.90
46091;DHT22;31826;53.572;10.170;2023-06-22T03:43:39;18.70;99.90
46091;DHT22;31826;53.572;10.170;2023-06-22T03:46:05;18.70;99.90
46091;DHT22;31826;53.572;10.170;2023-06-22T03:48:31;18.70;99.90
46091;DHT22;31826;53.572;10.170;2023-06-22T03:50:58;18.60;99.90
46091;DHT22;31826;53.572;10.170;2023-06-22T03:53:24;18.70;99.90
46091;DHT22;31826;53.572;10.170;2023-06-22T03:55:51;18.70;99.90
46091;DHT22;31826;53.572;10.170;2023-06-22T03:58:18;18.70;99.90
46091;DHT22;31826;53.572;10.170;2023-06-22T04:00:48;18.80;99.90
46091;DHT22;31826;53.572;10.170;2023-06-22T04:03:15;18.80;99.90
46091;DHT22;31826;53.572;10.170;2023-06-22T04:05:41;18.90;99.90
46091;DHT22;31826;53.572;10.170;2023-06-22T04:08:07;18.90;99.90
46091;DHT22;31826;53.572;10.170;2023-06-22T04:10:33;18.90;99.90
46091;DHT22;31826;53.572;10.170;2023-06-22T04:13:00;19.00;99.90
46091;DHT22;31826;53.572;10.170;2023-06-22T04:15:26;18.90;99.90
46091;DHT22;31826;53.572;10.170;2023-06-22T04:17:51;19.00;99.90
46091;DHT22;31826;53.572;10.170;2023-06-22T04:20:17;19.00;99.90
46091;DHT22;31826;53.572;10.170;2023-06-22T04:22:43;19.00;99.90
46091;DHT22;31826;53.572;10.170;2023-06-22T04:25:08;19.00;99.90
46091;DHT22;31826;53.572;10.170;2023-06-22T04:27:34;19.00;99.90
46091;DHT22;31826;53.572;10.170;2023-06-22T04:30:07;19.00;99.90
46091;DHT22;31826;53.572;10.170;2023-06-22T04:32:34;19.00;99.90
46091;DHT22;31826;53.572;10.170;2023-06-22T04:35:04;19.10;99.90
46091;DHT22;31826;53.572;10.170;2023-06-22T04:37:33;19.20;99.90
46091;DHT22;31826;53.572;10.170;2023-06-22T04:39:58;19.20;99.90
46091;DHT22;31826;53.572;10.170;2023-06-22T04:42:27;19.20;99.90
46091;DHT22;31826;53.572;10.170;2023-06-22T04:44:53;19.20;99.90
46091;DHT22;31826;53.572;10.170;2023-06-22T04:47:19;19.20;99.90
46091;DHT22;31826;53.572;10.170;2023-06-22T04:49:45;19.30;99.90
46091;DHT22;31826;53.572;10.170;2023-06-22T04:52:12;19.30;99.90
46091;DHT22;31826;53.572;10.170;2023-06-22T04:54:40;19.40;99.90
46091;DHT22;31826;53.572;10.170;2023-06-22T04:57:13;19.40;99.90
46091;DHT22;31826;53.572;10.170;2023-06-22T04:59:40;19.40;99.90
46091;DHT22;31826;53.572;10.170;2023-06-22T05:02:07;19.40;99.90
46091;DHT22;31826;53.572;10.170;2023-06-22T05:04:33;19.50;99.90
46091;DHT22;31826;53.572;10.170;2023-06-22T05:07:01;19.50;99.90
46091;DHT22;31826;53.572;10.170;2023-06-22T05:09:29;19.60;99.90
46091;DHT22;31826;53.572;10.170;2023-06-22T05:11:55;19.70;99.90
46091;DHT22;31826;53.572;10.170;2023-06-22T05:14:25;19.80;99.90
46091;DHT22;31826;53.572;10.170;2023-06-22T05:16:51;19.80;99.90
46091;DHT22;31826;53.572;10.170;2023-06-22T05:19:24;19.80;99.90
46091;DHT22;31826;53.572;10.170;2023-06-22T05:21:50;19.80;99.90
46091;DHT22;31826;53.572;10.170;2023-06-22T05:24:15;19.80;99.90
46091;DHT22;31826;53.572;10.170;2023-06-22T05:26:41;19.80;99.90
46091;DHT22;31826;53.572;10.170;2023-06-22T05:29:07;19.70;99.90
46091;DHT22;31826;53.572;10.170;2023-06-22T05:31:33;19.80;99.90
46091;DHT22;31826;53.572;10.170;2023-06-22T05:33:59;19.90;99.90
46091;DHT22;31826;53.572;10.170;2023-06-22T05:36:25;20.00;99.90
46091;DHT22;31826;53.572;10.170;2023-06-22T05:38:56;20.00;99.90
46091;DHT22;31826;53.572;10.170;2023-06-22T05:41:22;19.80;99.90
46091;DHT22;31826;53.572;10.170;2023-06-22T05:43:48;19.90;99.90
46091;DHT22;31826;53.572;10.170;2023-06-22T05:46:13;20.10;99.90
46091;DHT22;31826;53.572;10.170;2023-06-22T05:48:39;20.20;99.90
46091;DHT22;31826;53.572;10.170;2023-06-22T05:51:05;20.30;99.90
46091;DHT22;31826;53.572;10.170;2023-06-22T05:53:30;20.40;99.90
46091;DHT22;31826;53.572;10.170;2023-06-22T05:55:56;20.60;99.90
46091;DHT22;31826;53.572;10.170;2023-06-22T05:58:22;20.70;99.90
46091;DHT22;31826;53.572;10.170;2023-06-22T06:00:48;20.70;99.90
46091;DHT22;31826;53.572;10.170;2023-06-22T06:03:13;20.80;99.90
46091;DHT22;31826;53.572;10.170;2023-06-22T06:05:43;20.90;99.90
46091;DHT22;31826;53.572;10.170;2023-06-22T06:08:09;21.00;99.90
46091;DHT22;31826;53.572;10.170;2023-06-22T06:10:36;21.10;99.90
46091;DHT22;31826;53.572;10.170;2023-06-22T06:13:02;21.30;99.90
46091;DHT22;31826;53.572;10.170;2023-06-22T06:15:30;21.50;99.90
46091;DHT22;31826;53.572;10.170;2023-06-22T06:17:56;21.70;99.90
46091;DHT22;31826;53.572;10.170;2023-06-22T06:20:23;21.80;99.90
46091;DHT22;31826;53.572;10.170;2023-06-22T06:22:50;21.80;99.90
46091;DHT22;31826;53.572;10.170;2023-06-22T06:25:16;21.80;99.90
46091;DHT22;31826;53.572;10.170;2023-06-22T06:27:45;21.90;99.90
46091;DHT22;31826;53.572;10.170;2023-06-22T06:30:12;21.90;99.90
46091;DHT22;31826;53.572;10.170;2023-06-22T06:32:39;22.10;99.90
46091;DHT22;31826;53.572;10.170;2023-06-22T06:35:09;22.10;99.90
46091;DHT22;31826;53.572;10.170;2023-06-22T06:37:37;22.00;99.90
46091;DHT22;31826;53.572;10.170;2023-06-22T06:40:10;21.70;99.90
46091;DHT22;31826;53.572;10.170;2023-06-22T06:42:46;21.50;99.90
46091;DHT22;31826;53.572;10.170;2023-06-22T06:45:17;21.40;99.90
46091;DHT22;31826;53.572;10.170;2023-06-22T06:47:43;21.70;99.90
46091;DHT22;31826;53.572;10.170;2023-06-22T06:50:10;22.00;99.90
46091;DHT22;31826;53.572;10.170;2023-06-22T06:52:36;22.00;99.90
46091;DHT22;31826;53.572;10.170;2023-06-22T06:55:02;22.10;99.90
46091;DHT22;31826;53.572;10.170;2023-06-22T06:57:30;22.20;99.90
46091;DHT22;31826;53.572;10.170;2023-06-22T06:59:56;22.20;99.90
46091;DHT22;31826;53.572;10.170;2023-06-22T07:02:22;22.50;99.90
46091;DHT22;31826;53.572;10.170;2023-06-22T07:04:48;22.60;99.90
46091;DHT22;31826;53.572;10.170;2023-06-22T07:07:14;22.80;99.60
46091;DHT22;31826;53.572;10.170;2023-06-22T07:09:40;22.80;99.90
46091;DHT22;31826;53.572;10.170;2023-06-22T07:12:06;22.60;99.90
46091;DHT22;31826;53.572;10.170;2023-06-22T07:14:32;22.50;99.90
46091;DHT22;31826;53.572;10.170;2023-06-22T07:16:58;22.40;99.90
46091;DHT22;31826;53.572;10.170;2023-06-22T07:19:25;22.40;99.90
46091;DHT22;31826;53.572;10.170;2023-06-22T07:21:52;22.50;99.90
46091;DHT22;31826;53.572;10.170;2023-06-22T07:24:17;22.60;99.90
46091;DHT22;31826;53.572;10.170;2023-06-22T07:26:46;22.90;99.90
46091;DHT22;31826;53.572;10.170;2023-06-22T07:29:11;22.80;99.90
46091;DHT22;31826;53.572;10.170;2023-06-22T07:31:37;22.90;99.90
46091;DHT22;31826;53.572;10.170;2023-06-22T07:34:05;23.10;99.10
46091;DHT22;31826;53.572;10.170;2023-06-22T07:36:31;22.80;99.90
46091;DHT22;31826;53.572;10.170;2023-06-22T07:38:56;22.90;99.90
46091;DHT22;31826;53.572;10.170;2023-06-22T07:41:22;23.10;99.80
46091;DHT22;31826;53.572;10.170;2023-06-22T07:43:48;23.00;98.70
46091;DHT22;31826;53.572;10.170;2023-06-22T07:46:14;23.10;99.50
46091;DHT22;31826;53.572;10.170;2023-06-22T07:48:40;23.30;99.30
46091;DHT22;31826;53.572;10.170;2023-06-22T07:51:07;23.40;99.70
46091;DHT22;31826;53.572;10.170;2023-06-22T07:53:33;23.20;98.00
46091;DHT22;31826;53.572;10.170;2023-06-22T07:55:59;23.70;99.30
46091;DHT22;31826;53.572;10.170;2023-06-22T07:58:24;23.80;97.50
46091;DHT22;31826;53.572;10.170;2023-06-22T08:00:50;23.40;97.30
46091;DHT22;31826;53.572;10.170;2023-06-22T08:03:16;23.50;98.90
46091;DHT22;31826;53.572;10.170;2023-06-22T08:05:41;23.70;97.50
46091;DHT22;31826;53.572;10.170;2023-06-22T08:08:07;23.90;96.80
46091;DHT22;31826;53.572;10.170;2023-06-22T08:10:33;24.00;99.30
46091;DHT22;31826;53.572;10.170;2023-06-22T08:12:59;24.10;97.60
46091;DHT22;31826;53.572;10.170;2023-06-22T08:15:26;24.20;97.80
46091;DHT22;31826;53.572;10.170;2023-06-22T08:17:52;24.20;97.20
46091;DHT22;31826;53.572;10.170;2023-06-22T08:20:18;24.40;97.80
46091;DHT22;31826;53.572;10.170;2023-06-22T08:22:44;24.50;96.40
46091;DHT22;31826;53.572;10.170;2023-06-22T08:25:10;24.70;96.90
46091;DHT22;31826;53.572;10.170;2023-06-22T08:27:36;25.30;96.90
46091;DHT22;31826;53.572;10.170;2023-06-22T08:30:03;25.60;95.90
46091;DHT22;31826;53.572;10.170;2023-06-22T08:32:29;25.60;96.00
46091;DHT22;31826;53.572;10.170;2023-06-22T08:34:56;25.70;94.80
46091;DHT22;31826;53.572;10.170;2023-06-22T08:37:22;25.80;95.10
46091;DHT22;31826;53.572;10.170;2023-06-22T08:39:59;25.30;93.90
46091;DHT22;31826;53.572;10.170;2023-06-22T08:42:26;24.50;92.80
46091;DHT22;31826;53.572;10.170;2023-06-22T08:44:52;24.20;93.50
46091;DHT22;31826;53.572;10.170;2023-06-22T08:47:19;24.20;93.40
46091;DHT22;31826;53.572;10.170;2023-06-22T08:49:45;24.60;96.10
46091;DHT22;31826;53.572;10.170;2023-06-22T08:52:11;24.40;94.30
46091;DHT22;31826;53.572;10.170;2023-06-22T08:54:37;24.70;94.60
46091;DHT22;31826;53.572;10.170;2023-06-22T08:57:03;25.10;94.80
46091;DHT22;31826;53.572;10.170;2023-06-22T08:59:28;25.80;93.90
46091;DHT22;31826;53.572;10.170;2023-06-22T09:01:54;26.20;93.70
46091;DHT22;31826;53.572;10.170;2023-06-22T09:04:20;26.70;92.20
46091;DHT22;31826;53.572;10.170;2023-06-22T09:06:48;26.80;92.50
46091;DHT22;31826;53.572;10.170;2023-06-22T09:09:16;27.10;94.40
46091;DHT22;31826;53.572;10.170;2023-06-22T09:11:42;27.80;92.20
46091;DHT22;31826;53.572;10.170;2023-06-22T09:14:08;28.10;92.90
46091;DHT22;31826;53.572;10.170;2023-06-22T09:16:34;28.00;89.50
46091;DHT22;31826;53.572;10.170;2023-06-22T09:19:00;27.80;89.30
46091;DHT22;31826;53.572;10.170;2023-06-22T09:21:26;27.70;90.30
46091;DHT22;31826;53.572;10.170;2023-06-22T09:23:52;27.50;87.30
46091;DHT22;31826;53.572;10.170;2023-06-22T09:26:18;26.50;89.80
46091;DHT22;31826;53.572;10.170;2023-06-22T09:28:44;26.60;91.10
46091;DHT22;31826;53.572;10.170;2023-06-22T09:31:10;27.00;90.80
46091;DHT22;31826;53.572;10.170;2023-06-22T09:33:37;27.40;90.60
46091;DHT22;31826;53.572;10.170;2023-06-22T09:36:06;27.70;89.20
46091;DHT22;31826;53.572;10.170;2023-06-22T09:38:38;27.40;89.40
46091;DHT22;31826;53.572;10.170;2023-06-22T09:41:04;27.00;89.60
46091;DHT22;31826;53.572;10.170;2023-06-22T09:43:32;27.10;90.70
46091;DHT22;31826;53.572;10.170;2023-06-22T09:46:00;26.80;90.70
46091;DHT22;31826;53.572;10.170;2023-06-22T09:48:27;26.50;90.60
46091;DHT22;31826;53.572;10.170;2023-06-22T09:50:54;26.80;91.30
46091;DHT22;31826;53.572;10.170;2023-06-22T09:53:19;26.80;91.20
46091;DHT22;31826;53.572;10.170;2023-06-22T09:55:45;27.50;91.40
46091;DHT22;31826;53.572;10.170;2023-06-22T09:58:10;28.00;90.60
46091;DHT22;31826;53.572;10.170;2023-06-22T10:00:36;27.50;89.80
46091;DHT22;31826;53.572;10.170;2023-06-22T10:03:02;26.70;90.30
46091;DHT22;31826;53.572;10.170;2023-06-22T10:05:27;26.70;90.90
46091;DHT22;31826;53.572;10.170;2023-06-22T10:07:53;27.10;90.60
46091;DHT22;31826;53.572;10.170;2023-06-22T10:10:19;27.20;91.60
46091;DHT22;31826;53.572;10.170;2023-06-22T10:12:55;27.40;90.80
46091;DHT22;31826;53.572;10.170;2023-06-22T10:15:21;27.30;89.10
46091;DHT22;31826;53.572;10.170;2023-06-22T10:17:47;27.20;90.60
46091;DHT22;31826;53.572;10.170;2023-06-22T10:20:13;27.80;90.90
46091;DHT22;31826;53.572;10.170;2023-06-22T10:22:40;28.10;89.00
46091;DHT22;31826;53.572;10.170;2023-06-22T10:25:06;27.00;88.30
46091;DHT22;31826;53.572;10.170;2023-06-22T10:27:32;26.80;91.30
46091;DHT22;31826;53.572;10.170;2023-06-22T10:29:58;27.20;91.70
46091;DHT22;31826;53.572;10.170;2023-06-22T10:32:23;27.70;93.10
46091;DHT22;31826;53.572;10.170;2023-06-22T10:34:49;28.20;90.60
46091;DHT22;31826;53.572;10.170;2023-06-22T10:37:15;28.50;88.70
46091;DHT22;31826;53.572;10.170;2023-06-22T10:39:40;28.30;90.00
46091;DHT22;31826;53.572;10.170;2023-06-22T10:42:06;28.20;90.40
46091;DHT22;31826;53.572;10.170;2023-06-22T10:44:32;28.20;90.00
46091;DHT22;31826;53.572;10.170;2023-06-22T10:46:57;28.20;89.50
46091;DHT22;31826;53.572;10.170;2023-06-22T10:49:23;28.30;89.80
46091;DHT22;31826;53.572;10.170;2023-06-22T10:51:49;28.40;88.90
46091;DHT22;31826;53.572;10.170;2023-06-22T10:54:14;28.40;90.00
46091;DHT22;31826;53.572;10.170;2023-06-22T10:56:42;28.80;88.20
46091;DHT22;31826;53.572;10.170;2023-06-22T10:59:08;28.80;88.30
46091;DHT22;31826;53.572;10.170;2023-06-22T11:01:34;28.90;88.10
46091;DHT22;31826;53.572;10.170;2023-06-22T11:03:59;29.10;90.40
46091;DHT22;31826;53.572;10.170;2023-06-22T11:06:25;29.10;88.30
46091;DHT22;31826;53.572;10.170;2023-06-22T11:08:51;29.10;87.40
46091;DHT22;31826;53.572;10.170;2023-06-22T11:11:16;28.50;88.80
46091;DHT22;31826;53.572;10.170;2023-06-22T11:13:45;28.90;87.90
46091;DHT22;31826;53.572;10.170;2023-06-22T11:16:11;29.00;86.70
46091;DHT22;31826;53.572;10.170;2023-06-22T11:18:37;28.60;86.80
46091;DHT22;31826;53.572;10.170;2023-06-22T11:21:02;29.00;88.10
46091;DHT22;31826;53.572;10.170;2023-06-22T11:23:28;29.20;87.20
46091;DHT22;31826;53.572;10.170;2023-06-22T11:25:54;29.20;86.70
46091;DHT22;31826;53.572;10.170;2023-06-22T11:28:20;29.00;86.30
46091;DHT22;31826;53.572;10.170;2023-06-22T11:30:46;28.90;86.90
46091;DHT22;31826;53.572;10.170;2023-06-22T11:33:11;28.90;86.30
46091;DHT22;31826;53.572;10.170;2023-06-22T11:35:37;28.90;87.60
46091;DHT22;31826;53.572;10.170;2023-06-22T11:38:03;29.00;87.10
46091;DHT22;31826;53.572;10.170;2023-06-22T11:40:30;28.70;88.00
46091;DHT22;31826;53.572;10.170;2023-06-22T11:42:56;28.70;86.70
46091;DHT22;31826;53.572;10.170;2023-06-22T11:45:21;28.80;86.30
46091;DHT22;31826;53.572;10.170;2023-06-22T11:47:47;28.90;87.30
46091;DHT22;31826;53.572;10.170;2023-06-22T11:50:13;28.90;88.60
46091;DHT22;31826;53.572;10.170;2023-06-22T11:52:39;29.20;89.80
46091;DHT22;31826;53.572;10.170;2023-06-22T11:55:05;29.20;87.90
46091;DHT22;31826;53.572;10.170;2023-06-22T11:57:36;29.50;86.90
46091;DHT22;31826;53.572;10.170;2023-06-22T12:00:05;29.50;84.70
46091;DHT22;31826;53.572;10.170;2023-06-22T12:02:43;29.50;87.20
46091;DHT22;31826;53.572;10.170;2023-06-22T12:05:10;29.50;87.30
46091;DHT22;31826;53.572;10.170;2023-06-22T12:07:36;29.50;86.70
46091;DHT22;31826;53.572;10.170;2023-06-22T12:10:03;29.50;87.10
46091;DHT22;31826;53.572;10.170;2023-06-22T12:12:29;29.80;86.40
46091;DHT22;31826;53.572;10.170;2023-06-22T12:14:54;29.80;85.80
46091;DHT22;31826;53.572;10.170;2023-06-22T12:17:20;30.30;88.10
46091;DHT22;31826;53.572;10.170;2023-06-22T12:19:46;30.30;85.70
46091;DHT22;31826;53.572;10.170;2023-06-22T12:22:12;30.20;85.50
46091;DHT22;31826;53.572;10.170;2023-06-22T12:24:37;30.50;85.50
46091;DHT22;31826;53.572;10.170;2023-06-22T12:27:03;30.80;85.90
46091;DHT22;31826;53.572;10.170;2023-06-22T12:29:29;30.80;83.70
46091;DHT22;31826;53.572;10.170;2023-06-22T12:31:55;31.00;86.00
46091;DHT22;31826;53.572;10.170;2023-06-22T12:34:20;31.00;83.10
46091;DHT22;31826;53.572;10.170;2023-06-22T12:36:46;30.50;81.90
46091;DHT22;31826;53.572;10.170;2023-06-22T12:39:14;29.90;82.80
46091;DHT22;31826;53.572;10.170;2023-06-22T12:41:39;29.60;88.30
46091;DHT22;31826;53.572;10.170;2023-06-22T12:44:05;29.50;85.60
46091;DHT22;31826;53.572;10.170;2023-06-22T12:46:31;29.60;86.00
46091;DHT22;31826;53.572;10.170;2023-06-22T12:49:03;29.50;84.80
46091;DHT22;31826;53.572;10.170;2023-06-22T12:51:29;29.30;86.80
46091;DHT22;31826;53.572;10.170;2023-06-22T12:53:55;29.20;86.40
46091;DHT22;31826;53.572;10.170;2023-06-22T12:56:21;29.20;84.90
46091;DHT22;31826;53.572;10.170;2023-06-22T12:58:47;29.40;87.40
46091;DHT22;31826;53.572;10.170;2023-06-22T13:01:12;29.80;88.10
46091;DHT22;31826;53.572;10.170;2023-06-22T13:03:38;30.60;86.00
46091;DHT22;31826;53.572;10.170;2023-06-22T13:06:04;31.30;84.80
46091;DHT22;31826;53.572;10.170;2023-06-22T13:08:30;31.70;82.60
46091;DHT22;31826;53.572;10.170;2023-06-22T13:10:55;31.50;82.80
46091;DHT22;31826;53.572;10.170;2023-06-22T13:13:23;31.40;80.40
46091;DHT22;31826;53.572;10.170;2023-06-22T13:15:53;30.80;80.90
46091;DHT22;31826;53.572;10.170;2023-06-22T13:18:19;30.60;85.00
46091;DHT22;31826;53.572;10.170;2023-06-22T13:20:45;30.50;83.60
46091;DHT22;31826;53.572;10.170;2023-06-22T13:23:11;30.40;86.30
46091;DHT22;31826;53.572;10.170;2023-06-22T13:25:37;30.40;83.30
46091;DHT22;31826;53.572;10.170;2023-06-22T13:28:03;30.30;84.60
46091;DHT22;31826;53.572;10.170;2023-06-22T13:30:28;30.20;85.40
46091;DHT22;31826;53.572;10.170;2023-06-22T13:32:55;30.20;83.80
46091;DHT22;31826;53.572;10.170;2023-06-22T13:35:21;30.40;85.40
46091;DHT22;31826;53.572;10.170;2023-06-22T13:37:46;30.50;84.30
46091;DHT22;31826;53.572;10.170;2023-06-22T13:40:12;30.30;82.70
46091;DHT22;31826;53.572;10.170;2023-06-22T13:42:38;29.80;84.40
46091;DHT22;31826;53.572;10.170;2023-06-22T13:45:04;29.60;86.30
46091;DHT22;31826;53.572;10.170;2023-06-22T13:47:30;29.40;84.70
46091;DHT22;31826;53.572;10.170;2023-06-22T13:49:56;28.90;85.40
46091;DHT22;31826;53.572;10.170;2023-06-22T13:52:23;28.80;87.50
46091;DHT22;31826;53.572;10.170;2023-06-22T13:54:48;28.80;86.80
46091;DHT22;31826;53.572;10.170;2023-06-22T13:57:14;28.70;87.20
46091;DHT22;31826;53.572;10.170;2023-06-22T13:59:40;28.80;87.80
46091;DHT22;31826;53.572;10.170;2023-06-22T14:02:06;28.90;86.70
46091;DHT22;31826;53.572;10.170;2023-06-22T14:04:32;29.10;87.60
46091;DHT22;31826;53.572;10.170;2023-06-22T14:06:57;28.90;86.10
46091;DHT22;31826;53.572;10.170;2023-06-22T14:09:23;29.00;87.30
46091;DHT22;31826;53.572;10.170;2023-06-22T14:11:49;28.90;87.20
46091;DHT22;31826;53.572;10.170;2023-06-22T14:14:15;28.90;86.80
46091;DHT22;31826;53.572;10.170;2023-06-22T14:16:40;28.80;87.30
46091;DHT22;31826;53.572;10.170;2023-06-22T14:21:44;28.80;87.40
46091;DHT22;31826;53.572;10.170;2023-06-22T14:24:09;28.50;86.80
46091;DHT22;31826;53.572;10.170;2023-06-22T14:26:35;28.50;88.10
46091;DHT22;31826;53.572;10.170;2023-06-22T14:29:01;28.40;87.10
46091;DHT22;31826;53.572;10.170;2023-06-22T14:31:26;28.20;87.10
46091;DHT22;31826;53.572;10.170;2023-06-22T14:33:52;28.20;88.30
46091;DHT22;31826;53.572;10.170;2023-06-22T14:36:18;28.10;88.90
46091;DHT22;31826;53.572;10.170;2023-06-22T14:38:44;27.90;89.20
46091;DHT22;31826;53.572;10.170;2023-06-22T14:41:09;27.80;90.80
46091;DHT22;31826;53.572;10.170;2023-06-22T14:43:35;27.70;93.00
46091;DHT22;31826;53.572;10.170;2023-06-22T14:46:01;27.50;94.60
46091;DHT22;31826;53.572;10.170;2023-06-22T14:48:27;27.20;93.60
46091;DHT22;31826;53.572;10.170;2023-06-22T14:50:53;27.00;94.10
46091;DHT22;31826;53.572;10.170;2023-06-22T14:53:19;26.80;94.00
46091;DHT22;31826;53.572;10.170;2023-06-22T14:55:45;26.80;95.20
46091;DHT22;31826;53.572;10.170;2023-06-22T14:58:11;26.80;94.00
46091;DHT22;31826;53.572;10.170;2023-06-22T15:00:37;26.80;94.30
46091;DHT22;31826;53.572;10.170;2023-06-22T15:03:04;26.80;94.50
46091;DHT22;31826;53.572;10.170;2023-06-22T15:05:32;26.90;94.00
46091;DHT22;31826;53.572;10.170;2023-06-22T15:07:58;27.00;93.20
46091;DHT22;31826;53.572;10.170;2023-06-22T15:10:24;26.80;93.90
46091;DHT22;31826;53.572;10.170;2023-06-22T15:12:50;26.80;92.70
46091;DHT22;31826;53.572;10.170;2023-06-22T15:15:16;26.70;94.60
46091;DHT22;31826;53.572;10.170;2023-06-22T15:17:41;26.60;94.60
46091;DHT22;31826;53.572;10.170;2023-06-22T15:20:07;26.70;93.90